createdAt,value
2022-12-17T00:01:18.319Z,1563
2022-12-17T00:06:36.540Z,1570
2022-12-17T00:11:56.016Z,1577
2022-12-17T00:17:14.703Z,1575
2022-12-17T00:22:32.915Z,1572
2022-12-17T00:27:51.123Z,1575
2022-12-17T00:33:09.356Z,1578
2022-12-17T00:38:28.693Z,1578
2022-12-17T00:43:47.197Z,1583
2022-12-17T00:49:05.991Z,1586
2022-12-17T00:54:24.191Z,1587
2022-12-17T00:59:42.706Z,1593
2022-12-17T01:05:01.480Z,1593
2022-12-17T01:10:20.012Z,1611
2022-12-17T01:15:38.479Z,1606
2022-12-17T01:20:57.009Z,1621
2022-12-17T01:26:15.459Z,1642
2022-12-17T01:31:35.380Z,1644
2022-12-17T01:36:53.886Z,1656
2022-12-17T01:42:12.641Z,1661
2022-12-17T01:47:31.433Z,1669
2022-12-17T01:52:49.952Z,1663
2022-12-17T01:58:08.277Z,1677
2022-12-17T02:03:32.952Z,1679
2022-12-17T02:08:52.895Z,1696
2022-12-17T02:14:11.662Z,1687
2022-12-17T02:19:29.878Z,1671
2022-12-17T02:24:48.650Z,1675
2022-12-17T02:30:06.855Z,1677
2022-12-17T02:35:25.631Z,1665
2022-12-17T02:40:44.158Z,1663
2022-12-17T02:46:03.035Z,1668
2022-12-17T02:51:21.938Z,1664
2022-12-17T02:56:40.164Z,1672
2022-12-17T03:01:58.787Z,1670
2022-12-17T03:07:17.810Z,1661
2022-12-17T03:12:36.358Z,1649
2022-12-17T03:17:54.874Z,1641
2022-12-17T03:23:13.329Z,1643
2022-12-17T03:28:31.840Z,1646
2022-12-17T03:33:50.349Z,1637
2022-12-17T03:39:08.570Z,1629
2022-12-17T03:44:27.335Z,1622
2022-12-17T03:49:45.788Z,1625
2022-12-17T03:55:04.565Z,1619
2022-12-17T04:00:23.390Z,1616
2022-12-17T04:05:42.136Z,1620
2022-12-17T04:11:00.625Z,1623
2022-12-17T04:16:19.417Z,1610
2022-12-17T04:21:37.911Z,1589
2022-12-17T04:26:56.584Z,1585
2022-12-17T04:32:14.968Z,1589
2022-12-17T04:37:33.439Z,1595
2022-12-17T04:42:52.226Z,1583
2022-12-17T04:48:10.174Z,1584
2022-12-17T04:53:28.359Z,1570
2022-12-17T04:58:47.109Z,1562
2022-12-17T05:04:05.683Z,1546
2022-12-17T05:09:23.897Z,1540
2022-12-17T05:14:42.404Z,1532
2022-12-17T05:20:00.612Z,1537
2022-12-17T05:25:18.562Z,1536
2022-12-17T05:30:36.787Z,1551
2022-12-17T05:35:55.296Z,1537
2022-12-17T05:41:13.882Z,1552
2022-12-17T05:46:32.651Z,1561
2022-12-17T05:51:51.058Z,1573
2022-12-17T05:57:08.977Z,1568
2022-12-17T06:02:27.542Z,1561
2022-12-17T06:07:45.774Z,1556
2022-12-17T06:13:03.707Z,1565
2022-12-17T06:18:22.175Z,1581
2022-12-17T06:23:40.438Z,1594
2022-12-17T06:28:58.875Z,1597
2022-12-17T06:34:17.336Z,1594
2022-12-17T06:39:36.664Z,1598
2022-12-17T06:44:55.141Z,1605
2022-12-17T06:50:14.582Z,1589
2022-12-17T06:55:33.073Z,1584
2022-12-17T07:00:51.325Z,1585
2022-12-17T07:06:09.776Z,1585
2022-12-17T07:11:28.648Z,1583
2022-12-17T07:16:47.091Z,1583
2022-12-17T07:22:05.940Z,1566
2022-12-17T07:27:25.495Z,1565
2022-12-17T07:32:44.321Z,1557
2022-12-17T07:38:02.796Z,1556
2022-12-17T07:43:21.583Z,1551
2022-12-17T07:48:40.057Z,1539
2022-12-17T07:53:58.486Z,1530
2022-12-17T07:59:17.007Z,1513
2022-12-17T08:04:35.758Z,1502
2022-12-17T08:09:54.548Z,1405
2022-12-17T08:15:13.304Z,1311
2022-12-17T08:20:31.765Z,1402
2022-12-17T08:25:49.977Z,1441
2022-12-17T08:31:08.849Z,1501
2022-12-17T08:36:27.265Z,1517
2022-12-17T08:41:48.532Z,1577
2022-12-17T08:47:18.523Z,1526
2022-12-17T08:52:36.993Z,1511
2022-12-17T08:57:55.137Z,1499
2022-12-17T09:03:13.547Z,1500
2022-12-17T09:08:31.935Z,1491
2022-12-17T09:13:50.408Z,1480
2022-12-17T09:19:08.454Z,1450
2022-12-17T09:24:26.840Z,1456
2022-12-17T09:29:45.009Z,1441
2022-12-17T09:35:03.549Z,1452
2022-12-17T09:40:22.182Z,1471
2022-12-17T09:45:40.662Z,1472
2022-12-17T09:50:58.895Z,1469
2022-12-17T09:56:17.366Z,1450
2022-12-17T10:01:20.350Z,1440
2022-12-17T10:06:38.959Z,1434
2022-12-17T10:11:57.685Z,1447
2022-12-17T10:17:16.180Z,1417
2022-12-17T10:22:21.111Z,1391
2022-12-17T10:27:39.111Z,1365
2022-12-17T10:32:57.897Z,1347
2022-12-17T10:38:16.271Z,1324
2022-12-17T10:43:35.065Z,1305
2022-12-17T10:48:54.586Z,1293
2022-12-17T10:54:13.105Z,1267
2022-12-17T10:59:31.822Z,1275
2022-12-17T11:04:50.038Z,1277
2022-12-17T11:10:09.930Z,1266
2022-12-17T11:15:28.794Z,1263
2022-12-17T11:20:47.014Z,1262
2022-12-17T11:25:49.902Z,1249
2022-12-17T11:31:08.234Z,1189
2022-12-17T11:36:31.369Z,1141
2022-12-17T11:41:56.970Z,1090
2022-12-17T11:46:59.701Z,1047
2022-12-17T11:52:18.178Z,1016
2022-12-17T11:57:36.968Z,994
2022-12-17T12:02:55.508Z,960
2022-12-17T12:08:14.502Z,948
2022-12-17T12:13:33.004Z,970
2022-12-17T12:18:51.481Z,961
2022-12-17T12:24:09.665Z,950
2022-12-17T12:29:27.859Z,961
2022-12-17T12:34:46.064Z,952
2022-12-17T12:40:04.543Z,939
2022-12-17T12:45:23.117Z,925
2022-12-17T12:50:41.699Z,913
2022-12-17T12:56:00.209Z,899
2022-12-17T13:01:18.773Z,891
2022-12-17T13:06:38.182Z,897
2022-12-17T13:11:56.937Z,891
2022-12-17T13:17:15.730Z,886
2022-12-17T13:22:34.179Z,890
2022-12-17T13:27:52.703Z,888
2022-12-17T13:33:11.458Z,896
2022-12-17T13:38:29.935Z,900
2022-12-17T13:43:48.434Z,904
2022-12-17T13:49:06.940Z,909
2022-12-17T13:54:25.392Z,921
2022-12-17T13:59:43.852Z,943
2022-12-17T14:05:07.343Z,963
2022-12-17T14:10:26.398Z,1006
2022-12-17T14:15:44.628Z,1053
2022-12-17T14:21:03.418Z,1095
2022-12-17T14:26:21.850Z,1141
2022-12-17T14:31:40.364Z,1192
2022-12-17T14:36:58.623Z,1224
2022-12-17T14:42:17.106Z,1242
2022-12-17T14:47:35.582Z,1273
2022-12-17T14:52:54.360Z,1315
2022-12-17T14:58:15.541Z,1359
2022-12-17T15:03:34.182Z,1360
2022-12-17T15:08:52.487Z,1352
2022-12-17T15:14:11.334Z,1340
2022-12-17T15:19:29.829Z,1332
2022-12-17T15:24:48.643Z,1315
2022-12-17T15:30:07.081Z,1302
2022-12-17T15:35:25.291Z,1297
2022-12-17T15:40:43.218Z,1284
2022-12-17T15:46:01.227Z,1269
2022-12-17T15:51:20.097Z,1261
2022-12-17T15:56:38.064Z,1253
2022-12-17T16:01:56.402Z,1249
2022-12-17T16:07:15.264Z,1246
2022-12-17T16:12:33.508Z,1243
2022-12-17T16:17:51.954Z,1242
2022-12-17T16:23:12.224Z,1257
2022-12-17T16:28:30.726Z,1262
2022-12-17T16:33:48.669Z,1257
2022-12-17T16:39:06.876Z,1255
2022-12-17T16:44:25.396Z,1257
2022-12-17T16:49:43.601Z,1245
2022-12-17T16:55:01.773Z,1237
2022-12-17T17:00:20.281Z,1223
2022-12-17T17:05:39.034Z,1215
2022-12-17T17:10:57.801Z,1204
2022-12-17T17:16:16.686Z,1193
2022-12-17T17:21:35.345Z,1186
2022-12-17T17:26:53.829Z,1171
2022-12-17T17:32:13.315Z,1165
2022-12-17T17:37:32.511Z,1166
2022-12-17T17:42:35.359Z,1160
2022-12-17T17:47:53.596Z,1158
2022-12-17T17:53:11.772Z,1150
2022-12-17T17:58:30.306Z,1146
2022-12-17T18:03:49.132Z,1142
2022-12-17T18:09:07.456Z,1135
2022-12-17T18:14:25.633Z,1130
2022-12-17T18:19:44.428Z,1123
2022-12-17T18:25:02.897Z,1116
2022-12-17T18:30:21.381Z,1100
2022-12-17T18:35:39.624Z,1092
2022-12-17T18:40:57.776Z,1080
2022-12-17T18:46:20.598Z,1047
2022-12-17T18:51:42.222Z,1065
2022-12-17T18:57:02.037Z,1077
2022-12-17T19:02:20.762Z,1054
2022-12-17T19:07:39.292Z,1032
2022-12-17T19:12:58.044Z,1034
2022-12-17T19:18:16.807Z,1056
2022-12-17T19:23:34.766Z,1052
2022-12-17T19:28:52.974Z,1037
2022-12-17T19:34:11.492Z,1026
2022-12-17T19:39:30.261Z,1020
2022-12-17T19:44:48.721Z,1023
2022-12-17T19:50:07.200Z,1019
2022-12-17T19:55:25.474Z,1019
2022-12-17T20:00:43.691Z,1002
2022-12-17T20:06:02.991Z,1004
2022-12-17T20:11:21.218Z,1002
2022-12-17T20:16:39.486Z,1004
2022-12-17T20:21:57.973Z,1004
2022-12-17T20:27:16.181Z,1004
2022-12-17T20:32:34.657Z,1005
2022-12-17T20:37:53.126Z,1004
2022-12-17T20:43:11.519Z,1007
2022-12-17T20:48:31.599Z,1011
2022-12-17T20:53:50.083Z,1015
2022-12-17T20:59:08.002Z,1017
2022-12-17T21:04:26.195Z,1021
2022-12-17T21:09:44.696Z,1028
2022-12-17T21:15:03.481Z,1038
2022-12-17T21:20:21.957Z,1044
2022-12-17T21:25:41.833Z,1040
2022-12-17T21:31:00.164Z,1041
2022-12-17T21:36:18.566Z,1045
2022-12-17T21:41:37.066Z,1063
2022-12-17T21:47:02.736Z,1091
2022-12-17T21:52:21.509Z,1159
2022-12-17T21:57:39.731Z,1184
2022-12-17T22:03:00.724Z,1222
2022-12-17T22:08:19.145Z,1233
2022-12-17T22:13:38.216Z,1259
2022-12-17T22:18:56.705Z,1282
2022-12-17T22:24:15.604Z,1301
2022-12-17T22:29:33.852Z,1317
2022-12-17T22:35:42.031Z,1319
2022-12-17T22:50:09.840Z,1337
2022-12-17T22:55:29.482Z,1342
2022-12-17T23:00:33.923Z,1342
2022-12-17T23:05:52.115Z,1351
2022-12-17T23:11:10.319Z,1353
2022-12-17T23:16:29.199Z,1347
2022-12-17T23:21:48.416Z,1336
2022-12-17T23:27:06.885Z,1334
2022-12-17T23:32:25.647Z,1329
2022-12-17T23:37:43.981Z,1320
2022-12-17T23:43:01.919Z,1318
2022-12-17T23:48:20.434Z,1352
2022-12-17T23:53:39.052Z,1339
2022-12-17T23:58:58.459Z,1311
